Time;durP1;ratioP1;P1;durP2;ratioP2;P2;SDS_P1;SDS_P2;PMS_P1;PMS_P2;Temp;Humidity;BMP_temperature;BMP_pressure;BME280_temperature;BME280_humidity;BME280_pressure;Samples;Min_cycle;Max_cycle;Signal;HPM_P1;HPM_P2
2022/10/11 00:01:44;;;;;;;6.80;5.30;;;15.60;99.90;;;;;;5113655;28;20031;-87
2022/10/11 00:04:09;;;;;;;6.85;5.13;;;15.60;99.90;;;;;;5113309;28;20031;-87
2022/10/11 00:06:36;;;;;;;5.90;5.28;;;15.70;99.90;;;;;;5113703;28;20095;-87
2022/10/11 00:09:05;;;;;;;9.70;5.63;;;15.60;99.90;;;;;;5113791;28;20069;-87
2022/10/11 00:11:31;;;;;;;9.07;5.47;;;15.50;99.90;;;;;;5113889;28;20016;-86
2022/10/11 00:13:57;;;;;;;6.88;5.10;;;15.50;99.90;;;;;;5113571;28;20030;-87
2022/10/11 00:16:23;;;;;;;9.05;4.63;;;15.30;99.90;;;;;;5113533;28;20027;-87
2022/10/11 00:18:49;;;;;;;6.75;4.68;;;15.40;99.90;;;;;;5113059;28;20376;-87
2022/10/11 00:21:15;;;;;;;8.23;5.47;;;15.40;99.90;;;;;;5113389;28;20028;-87
2022/10/11 00:23:42;;;;;;;8.95;5.50;;;15.30;99.90;;;;;;5113317;28;20028;-87
2022/10/11 00:26:09;;;;;;;7.05;5.32;;;15.30;99.90;;;;;;5113696;28;20032;-87
2022/10/11 00:28:36;;;;;;;8.27;5.00;;;15.60;99.90;;;;;;5113197;28;20055;-87
2022/10/11 00:31:05;;;;;;;9.65;5.25;;;15.30;99.90;;;;;;5113236;28;20388;-87
2022/10/11 00:33:31;;;;;;;7.00;5.03;;;15.30;99.90;;;;;;5112664;28;20066;-87
2022/10/11 00:35:59;;;;;;;7.25;5.05;;;15.30;99.90;;;;;;5113162;28;20055;-87
2022/10/11 00:38:24;;;;;;;11.40;5.57;;;15.30;99.90;;;;;;5112892;28;20023;-87
2022/10/11 00:40:50;;;;;;;7.28;5.47;;;15.10;99.90;;;;;;5113253;28;20034;-87
2022/10/11 00:43:19;;;;;;;8.82;5.55;;;15.60;99.90;;;;;;5113443;28;20024;-87
2022/10/11 00:45:56;;;;;;;7.72;5.25;;;15.20;99.90;;;;;;5094251;28;20092;-87
2022/10/11 00:48:39;;;;;;;9.70;5.40;;;15.30;99.90;;;;;;5113034;28;20073;-87
2022/10/11 00:51:17;;;;;;;7.70;5.80;;;15.30;99.90;;;;;;5113068;28;20479;-87
2022/10/11 00:53:43;;;;;;;9.88;6.05;;;15.40;99.90;;;;;;5112877;28;20028;-87
2022/10/11 00:56:17;;;;;;;6.20;5.60;;;15.40;99.90;;;;;;5112995;28;20391;-87
2022/10/11 00:58:43;;;;;;;9.00;5.97;;;15.40;99.90;;;;;;5112878;28;20027;-87
2022/10/11 01:01:09;;;;;;;9.45;5.97;;;15.50;99.90;;;;;;5112627;28;20417;-87
2022/10/11 01:03:36;;;;;;;7.70;5.20;;;15.30;99.90;;;;;;5094732;28;20031;-87
2022/10/11 01:06:02;;;;;;;12.48;5.35;;;15.10;99.90;;;;;;5094780;28;20059;-87
2022/10/11 01:08:28;;;;;;;8.10;4.65;;;15.00;99.90;;;;;;5112542;28;20129;-86
2022/10/11 01:10:55;;;;;;;8.25;4.97;;;15.30;99.90;;;;;;5094587;28;20020;-87
2022/10/11 01:13:32;;;;;;;10.27;5.10;;;14.90;99.90;;;;;;5112697;28;20487;-87
2022/10/11 01:16:11;;;;;;;8.02;5.25;;;15.00;99.90;;;;;;5094075;28;20024;-87
2022/10/11 01:18:52;;;;;;;7.55;5.70;;;15.00;99.90;;;;;;5113037;28;20024;-87
2022/10/11 01:21:29;;;;;;;9.70;5.35;;;14.80;99.90;;;;;;5112495;28;20084;-87
2022/10/11 01:24:26;;;;;;;7.80;5.30;;;14.70;99.90;;;;;;5094285;28;20020;-87
2022/10/11 01:27:29;;;;;;;10.32;5.15;;;14.80;99.90;;;;;;5094114;28;20392;-87
2022/10/11 01:30:07;;;;;;;7.85;4.68;;;14.70;99.90;;;;;;5112156;28;20027;-87
2022/10/11 01:32:42;;;;;;;6.88;4.90;;;14.90;99.90;;;;;;5093539;28;20040;-87
2022/10/11 01:35:19;;;;;;;7.45;5.13;;;14.90;99.90;;;;;;5094349;28;20116;-87
2022/10/11 01:38:01;;;;;;;8.93;5.93;;;15.00;99.90;;;;;;5093893;28;20461;-87
2022/10/11 01:40:34;;;;;;;8.43;5.55;;;14.90;99.90;;;;;;5094130;28;20020;-87
2022/10/11 01:43:00;;;;;;;8.38;5.68;;;14.80;99.90;;;;;;5094493;28;20111;-87
2022/10/11 01:45:26;;;;;;;8.68;6.03;;;14.80;99.90;;;;;;5093722;28;20084;-87
2022/10/11 01:48:10;;;;;;;8.30;6.03;;;15.30;99.90;;;;;;5112240;28;20083;-87
2022/10/11 01:50:40;;;;;;;7.88;5.53;;;15.00;99.90;;;;;;5112420;28;20023;-87
2022/10/11 01:53:43;;;;;;;8.63;6.18;;;15.10;99.90;;;;;;5112237;28;20020;-87
2022/10/11 01:56:50;;;;;;;8.88;6.00;;;15.10;99.90;;;;;;5128126;28;20429;-87
2022/10/11 01:59:22;;;;;;;9.05;6.25;;;15.00;99.90;;;;;;5112047;28;20376;-87
2022/10/11 02:01:53;;;;;;;8.90;5.80;;;15.00;99.90;;;;;;5112266;28;20028;-87
2022/10/11 02:04:27;;;;;;;10.07;6.00;;;14.90;99.90;;;;;;5111958;28;20024;-87
2022/10/11 02:07:38;;;;;;;11.77;6.28;;;14.80;99.90;;;;;;5093668;28;20088;-87
2022/10/11 02:10:25;;;;;;;9.55;6.85;;;14.80;99.90;;;;;;5107228;28;20451;-87
2022/10/11 02:13:07;;;;;;;8.07;5.93;;;15.20;99.90;;;;;;5093570;28;20020;-87
2022/10/11 02:15:35;;;;;;;9.85;5.65;;;14.90;99.90;;;;;;5112073;28;20032;-87
2022/10/11 02:18:06;;;;;;;8.48;5.50;;;14.80;99.90;;;;;;5112034;28;20409;-87
2022/10/11 02:20:33;;;;;;;7.20;5.28;;;14.70;99.90;;;;;;5114245;28;20096;-87
2022/10/11 02:23:04;;;;;;;8.82;5.53;;;14.70;99.90;;;;;;5115621;28;20077;-87
2022/10/11 02:25:34;;;;;;;7.38;5.45;;;14.70;99.90;;;;;;5115836;28;20483;-87
2022/10/11 02:28:03;;;;;;;9.40;5.55;;;14.60;99.90;;;;;;5115517;28;20020;-87
2022/10/11 02:30:30;;;;;;;11.95;5.97;;;14.70;99.90;;;;;;5115511;28;20108;-87
2022/10/11 02:32:58;;;;;;;9.35;5.72;;;14.70;99.90;;;;;;5115919;28;20020;-87
2022/10/11 02:35:27;;;;;;;9.50;6.82;;;14.70;99.90;;;;;;5115311;28;20047;-87
2022/10/11 02:38:04;;;;;;;7.60;5.85;;;14.70;99.90;;;;;;5115434;28;20069;-87
2022/10/11 02:40:36;;;;;;;9.40;6.40;;;15.10;99.90;;;;;;5115531;28;20016;-87
2022/10/11 02:43:10;;;;;;;8.23;5.95;;;14.70;99.90;;;;;;5114986;28;20412;-87
2022/10/11 02:46:04;;;;;;;8.23;5.82;;;14.80;99.90;;;;;;5115567;28;20032;-87
2022/10/11 02:48:31;;;;;;;7.10;6.18;;;14.80;99.90;;;;;;5112320;28;20088;-87
2022/10/11 02:50:57;;;;;;;8.13;6.57;;;14.80;99.90;;;;;;5115159;28;20023;-86
2022/10/11 02:53:24;;;;;;;8.48;6.82;;;14.80;99.90;;;;;;5115154;28;20107;-87
2022/10/11 02:55:52;;;;;;;10.73;6.47;;;14.80;99.90;;;;;;5096856;28;20024;-86
2022/10/11 02:58:18;;;;;;;9.60;6.10;;;14.80;99.90;;;;;;5114613;28;20034;-87
2022/10/11 03:00:44;;;;;;;11.65;6.28;;;14.70;99.90;;;;;;5115517;28;20027;-87
2022/10/11 03:03:09;;;;;;;7.45;6.13;;;14.70;99.90;;;;;;5114669;28;20494;-86
2022/10/11 03:05:39;;;;;;;6.97;5.40;;;14.80;99.90;;;;;;5114801;28;20024;-87
2022/10/11 03:08:09;;;;;;;8.10;6.13;;;14.70;99.90;;;;;;5114913;28;20032;-87
2022/10/11 03:10:36;;;;;;;9.40;6.22;;;14.50;99.90;;;;;;5115157;28;20032;-87
2022/10/11 03:13:01;;;;;;;7.57;5.70;;;14.30;99.90;;;;;;5096452;28;20107;-87
2022/10/11 03:15:28;;;;;;;8.40;5.60;;;14.50;99.90;;;;;;5114742;28;20114;-86
2022/10/11 03:17:53;;;;;;;8.25;5.85;;;14.50;99.90;;;;;;5114509;28;20080;-87
2022/10/11 03:20:19;;;;;;;8.35;5.93;;;14.40;99.90;;;;;;5114595;28;20028;-87
2022/10/11 03:22:44;;;;;;;9.52;5.32;;;14.80;99.90;;;;;;5114691;28;20026;-87
2022/10/11 03:25:10;;;;;;;6.97;5.82;;;14.30;99.90;;;;;;5113928;28;20030;-87
2022/10/11 03:27:36;;;;;;;11.02;5.80;;;14.40;99.90;;;;;;5096622;28;20067;-87
2022/10/11 03:30:03;;;;;;;6.80;5.30;;;14.50;99.90;;;;;;5114441;28;20026;-87
2022/10/11 03:32:29;;;;;;;7.63;5.28;;;14.50;99.90;;;;;;5113076;28;20031;-87
2022/10/11 03:34:55;;;;;;;7.82;5.13;;;14.60;99.90;;;;;;5114217;28;20122;-87
2022/10/11 03:37:20;;;;;;;8.57;5.25;;;14.70;99.90;;;;;;5114275;28;20527;-87
2022/10/11 03:39:46;;;;;;;7.05;5.47;;;14.40;99.90;;;;;;5113876;28;20016;-87
2022/10/11 03:42:12;;;;;;;8.57;5.30;;;14.30;99.90;;;;;;5114497;28;20499;-86
2022/10/11 03:44:38;;;;;;;8.57;5.47;;;14.30;99.90;;;;;;5114164;28;20468;-87
2022/10/11 03:47:04;;;;;;;7.78;5.68;;;14.40;99.90;;;;;;5113893;28;20042;-87
2022/10/11 03:49:30;;;;;;;6.60;5.15;;;14.40;99.90;;;;;;5114134;28;20039;-87
2022/10/11 03:51:56;;;;;;;6.38;5.60;;;14.50;99.90;;;;;;5114294;28;20439;-87
2022/10/11 03:54:22;;;;;;;9.55;6.03;;;14.50;99.90;;;;;;5113653;28;20024;-87
2022/10/11 03:56:47;;;;;;;10.13;5.60;;;14.70;99.90;;;;;;5095489;28;20521;-87
2022/10/11 03:59:13;;;;;;;10.02;5.93;;;14.50;99.90;;;;;;5113938;28;20104;-87
2022/10/11 04:01:39;;;;;;;10.20;6.35;;;14.50;99.90;;;;;;5095745;28;20027;-87
2022/10/11 04:04:05;;;;;;;8.00;5.78;;;14.50;99.90;;;;;;5113730;28;20035;-86
2022/10/11 04:06:31;;;;;;;10.45;5.50;;;14.50;99.90;;;;;;5113733;28;20031;-87
2022/10/11 04:08:56;;;;;;;8.68;5.80;;;14.60;99.90;;;;;;5113295;28;20035;-87
2022/10/11 04:11:22;;;;;;;7.55;5.68;;;14.70;99.90;;;;;;5113712;28;20396;-87
2022/10/11 04:13:48;;;;;;;8.50;5.97;;;14.60;99.90;;;;;;5095571;28;20024;-87
2022/10/11 04:16:13;;;;;;;8.75;6.25;;;14.60;99.90;;;;;;5095343;28;20035;-87
2022/10/11 04:18:39;;;;;;;7.47;5.53;;;14.70;99.90;;;;;;5095262;28;20035;-86
2022/10/11 04:21:05;;;;;;;6.57;5.70;;;14.70;99.90;;;;;;5113318;28;20123;-86
2022/10/11 04:23:32;;;;;;;7.20;6.22;;;14.70;99.90;;;;;;5113649;28;20028;-86
2022/10/11 04:25:57;;;;;;;9.05;5.82;;;14.60;99.90;;;;;;5095081;28;20028;-86
2022/10/11 04:28:23;;;;;;;9.30;5.93;;;14.50;99.90;;;;;;5113320;28;20034;-87
2022/10/11 04:30:50;;;;;;;8.93;5.40;;;14.60;99.90;;;;;;5113270;28;20099;-86
2022/10/11 04:33:16;;;;;;;10.85;5.80;;;14.50;99.90;;;;;;5113121;28;20068;-87
2022/10/11 04:35:41;;;;;;;9.77;5.72;;;14.40;99.90;;;;;;5113577;28;20031;-87
2022/10/11 04:38:07;;;;;;;10.10;5.50;;;14.30;99.90;;;;;;5112922;28;20016;-87
2022/10/11 04:40:33;;;;;;;9.55;5.20;;;14.40;99.90;;;;;;5113074;28;20204;-86
2022/10/11 04:42:59;;;;;;;8.90;5.10;;;14.40;99.90;;;;;;5112881;28;20502;-86
2022/10/11 04:45:25;;;;;;;9.18;5.47;;;14.30;99.90;;;;;;5112915;28;20031;-87
2022/10/11 04:47:50;;;;;;;6.65;5.40;;;14.20;99.90;;;;;;5113476;28;20514;-87
2022/10/11 04:50:16;;;;;;;9.05;5.25;;;14.10;99.90;;;;;;5112976;28;20468;-87
2022/10/11 04:52:42;;;;;;;8.48;5.20;;;14.00;99.90;;;;;;5112943;28;20023;-87
2022/10/11 04:55:08;;;;;;;9.88;5.72;;;14.00;99.90;;;;;;5112837;28;20031;-86
2022/10/11 04:57:34;;;;;;;6.85;5.45;;;14.20;99.90;;;;;;5112752;28;20020;-87
2022/10/11 04:59:59;;;;;;;6.25;5.43;;;14.30;99.90;;;;;;5112772;28;20023;-87
2022/10/11 05:02:25;;;;;;;5.93;5.32;;;14.60;99.90;;;;;;5112626;28;20621;-87
2022/10/11 05:04:51;;;;;;;7.75;5.45;;;14.20;99.90;;;;;;5113220;28;20027;-87
2022/10/11 05:07:16;;;;;;;9.27;5.70;;;14.20;99.90;;;;;;5112178;28;20039;-87
2022/10/11 05:09:42;;;;;;;9.25;6.20;;;14.30;99.90;;;;;;5094349;28;20020;-87
2022/10/11 05:12:07;;;;;;;8.50;5.95;;;14.30;99.90;;;;;;5112708;28;20058;-87
2022/10/11 05:14:33;;;;;;;7.72;6.10;;;14.30;99.90;;;;;;5112914;28;20024;-87
2022/10/11 05:16:59;;;;;;;8.93;5.80;;;14.40;99.90;;;;;;5112655;28;20039;-87
2022/10/11 05:19:25;;;;;;;9.82;6.43;;;14.30;99.90;;;;;;5112723;28;20016;-86
2022/10/11 05:21:50;;;;;;;10.15;6.15;;;14.30;99.90;;;;;;5112375;28;20054;-87
2022/10/11 05:24:16;;;;;;;7.13;5.80;;;14.40;99.90;;;;;;5112588;28;20063;-87
2022/10/11 05:26:41;;;;;;;7.38;5.65;;;14.30;99.90;;;;;;5112528;28;20036;-87
2022/10/11 05:29:07;;;;;;;12.10;6.68;;;14.50;99.90;;;;;;5094239;28;20500;-87
2022/10/11 05:31:33;;;;;;;9.35;6.00;;;14.40;99.90;;;;;;5112663;28;20032;-87
2022/10/11 05:33:58;;;;;;;7.47;6.00;;;14.30;99.90;;;;;;5093956;28;20047;-86
2022/10/11 05:36:24;;;;;;;11.13;6.28;;;14.30;99.90;;;;;;5112102;28;20481;-87
2022/10/11 05:38:50;;;;;;;9.48;6.80;;;14.20;99.90;;;;;;5112450;28;20016;-86
2022/10/11 05:41:16;;;;;;;8.15;6.13;;;14.30;99.90;;;;;;5112483;28;20558;-87
2022/10/11 05:43:43;;;;;;;8.60;5.60;;;14.30;99.90;;;;;;5112175;28;20396;-87
2022/10/11 05:46:09;;;;;;;10.07;6.60;;;14.30;99.90;;;;;;5112507;28;20142;-86
2022/10/11 05:48:35;;;;;;;12.43;6.68;;;14.30;99.90;;;;;;5111926;28;20089;-87
2022/10/11 05:51:06;;;;;;;10.68;5.78;;;14.30;99.90;;;;;;5112274;28;20027;-86
2022/10/11 05:53:32;;;;;;;8.23;5.78;;;14.50;99.90;;;;;;5112970;28;20059;-86
2022/10/11 05:55:58;;;;;;;9.30;6.70;;;14.50;99.90;;;;;;5097381;28;20396;-87
2022/10/11 05:58:24;;;;;;;7.30;6.22;;;14.70;99.90;;;;;;5115839;28;20075;-87
2022/10/11 06:00:50;;;;;;;10.27;6.45;;;14.50;99.90;;;;;;5097995;28;20499;-87
2022/10/11 06:03:16;;;;;;;9.60;6.00;;;14.50;99.90;;;;;;5118530;28;20031;-85
2022/10/11 06:05:42;;;;;;;7.85;5.95;;;15.00;99.90;;;;;;5115825;28;20035;-87
2022/10/11 06:08:08;;;;;;;9.15;5.88;;;14.80;99.90;;;;;;5097862;28;20106;-87
2022/10/11 06:10:35;;;;;;;10.27;6.13;;;14.90;99.90;;;;;;5115852;28;20452;-87
2022/10/11 06:13:01;;;;;;;9.73;6.03;;;15.00;99.90;;;;;;5097596;28;20024;-87
2022/10/11 06:15:27;;;;;;;9.20;5.65;;;15.10;99.90;;;;;;5115937;28;20069;-87
2022/10/11 06:17:53;;;;;;;12.27;6.07;;;15.10;99.90;;;;;;5116036;28;20093;-87
2022/10/11 06:20:18;;;;;;;9.38;5.40;;;15.20;99.90;;;;;;5115409;28;20030;-87
2022/10/11 06:22:44;;;;;;;8.55;5.38;;;15.50;99.90;;;;;;5097398;28;20023;-87
2022/10/11 06:25:11;;;;;;;9.40;5.85;;;15.20;99.90;;;;;;5115493;28;20027;-87
2022/10/11 06:27:36;;;;;;;8.15;5.20;;;15.40;99.90;;;;;;5115480;28;20502;-87
2022/10/11 06:30:03;;;;;;;9.75;5.35;;;15.70;99.90;;;;;;5116046;28;20087;-87
2022/10/11 06:32:29;;;;;;;9.63;4.97;;;15.40;99.90;;;;;;5115196;28;20065;-87
2022/10/11 06:34:54;;;;;;;11.27;8.32;;;15.40;99.90;;;;;;5096882;28;20051;-87
2022/10/11 06:37:20;;;;;;;8.65;5.10;;;15.50;99.90;;;;;;5115402;28;20023;-87
2022/10/11 06:39:46;;;;;;;5.63;4.43;;;15.60;99.90;;;;;;5115351;28;20058;-86
2022/10/11 06:42:11;;;;;;;6.13;4.53;;;15.50;99.90;;;;;;5115360;28;20031;-87
2022/10/11 06:44:37;;;;;;;7.50;4.68;;;15.50;99.90;;;;;;5115365;28;20031;-87
2022/10/11 06:47:05;;;;;;;9.00;4.93;;;15.60;99.90;;;;;;5115055;28;20172;-86
2022/10/11 06:49:30;;;;;;;9.00;5.47;;;15.60;99.90;;;;;;5114946;28;20020;-87
2022/10/11 06:51:56;;;;;;;8.65;5.88;;;15.30;99.90;;;;;;5115131;28;20038;-87
2022/10/11 06:54:22;;;;;;;9.10;5.50;;;15.10;99.90;;;;;;5115498;28;20488;-86
2022/10/11 06:56:47;;;;;;;8.73;6.03;;;15.40;99.90;;;;;;5115185;28;20024;-87
2022/10/11 06:59:13;;;;;;;7.13;5.70;;;15.60;99.90;;;;;;5115120;28;20344;-87
2022/10/11 07:01:40;;;;;;;11.98;5.60;;;15.90;99.90;;;;;;5115230;28;20035;-86
2022/10/11 07:04:07;;;;;;;10.07;5.93;;;15.90;99.90;;;;;;5114651;28;20030;-87
2022/10/11 07:06:35;;;;;;;8.70;5.50;;;16.00;99.90;;;;;;5114658;28;20388;-87
2022/10/11 07:09:01;;;;;;;9.15;5.63;;;15.80;99.90;;;;;;5114816;28;20035;-87
2022/10/11 07:11:27;;;;;;;11.40;5.50;;;16.10;99.90;;;;;;5114864;28;20019;-87
2022/10/11 07:13:56;;;;;;;10.20;6.30;;;16.20;99.90;;;;;;5114683;28;20076;-87
2022/10/11 07:16:23;;;;;;;12.55;6.70;;;16.30;99.90;;;;;;5114671;28;20027;-87
2022/10/11 07:18:53;;;;;;;11.20;6.55;;;16.50;99.90;;;;;;5096192;28;20107;-86
2022/10/11 07:21:18;;;;;;;11.23;5.88;;;16.20;99.90;;;;;;5114983;28;20028;-86
2022/10/11 07:23:44;;;;;;;8.68;5.68;;;16.30;99.90;;;;;;5114695;28;20031;-87
2022/10/11 07:26:10;;;;;;;8.82;5.88;;;16.60;99.90;;;;;;5096240;28;20024;-86
2022/10/11 07:28:38;;;;;;;9.07;5.88;;;16.60;99.90;;;;;;5114444;28;20096;-87
2022/10/11 07:31:12;;;;;;;12.45;7.03;;;16.70;99.90;;;;;;5114344;28;20012;-87
2022/10/11 07:33:38;;;;;;;13.02;6.57;;;16.80;99.90;;;;;;5113843;28;20173;-87
2022/10/11 07:36:05;;;;;;;10.95;6.70;;;16.40;99.90;;;;;;5114853;28;20063;-87
2022/10/11 07:38:31;;;;;;;10.45;6.30;;;16.70;99.90;;;;;;5114372;28;20038;-86
2022/10/11 07:40:57;;;;;;;8.55;6.05;;;17.00;99.90;;;;;;5114207;28;20488;-87
2022/10/11 07:43:23;;;;;;;8.20;5.90;;;17.20;99.90;;;;;;5114171;28;20506;-87
2022/10/11 07:45:53;;;;;;;9.05;6.38;;;17.00;99.90;;;;;;5096049;28;20036;-86
2022/10/11 07:48:19;;;;;;;9.35;6.40;;;16.70;99.90;;;;;;5113783;28;20017;-87
2022/10/11 07:50:45;;;;;;;13.07;7.63;;;17.00;99.90;;;;;;5114111;28;20043;-87
2022/10/11 07:53:10;;;;;;;7.88;5.68;;;17.20;99.90;;;;;;5114019;28;20020;-86
2022/10/11 07:55:41;;;;;;;8.82;5.75;;;17.60;99.90;;;;;;5114196;28;20483;-87
2022/10/11 07:58:11;;;;;;;11.23;6.00;;;17.60;99.90;;;;;;5129947;27;20031;-86
2022/10/11 08:00:41;;;;;;;9.38;5.53;;;18.80;99.90;;;;;;5113463;28;20050;-87
2022/10/11 08:03:07;;;;;;;9.43;5.97;;;19.60;99.90;;;;;;5113584;28;20072;-86
2022/10/11 08:05:33;;;;;;;12.27;6.70;;;19.30;99.90;;;;;;5114166;28;20023;-87
2022/10/11 08:07:59;;;;;;;10.20;6.55;;;19.30;99.90;;;;;;5095480;28;20376;-87
2022/10/11 08:10:25;;;;;;;10.15;6.53;;;20.00;99.90;;;;;;5113774;28;20034;-87
2022/10/11 08:12:52;;;;;;;10.60;6.80;;;20.90;99.90;;;;;;5113668;28;20047;-86
2022/10/11 08:15:18;;;;;;;9.68;6.68;;;23.50;99.90;;;;;;5113353;28;20110;-87
2022/10/11 08:17:45;;;;;;;9.45;7.03;;;26.00;99.90;;;;;;5113224;28;20023;-87
2022/10/11 08:20:10;;;;;;;11.85;8.68;;;27.20;99.90;;;;;;5095167;28;20023;-87
2022/10/11 08:22:36;;;;;;;9.60;7.93;;;28.60;99.90;;;;;;5095090;28;20514;-87
2022/10/11 08:25:02;;;;;;;11.18;7.93;;;29.00;99.90;;;;;;5113599;28;20502;-87
2022/10/11 08:27:28;;;;;;;13.90;8.13;;;29.80;99.90;;;;;;5113751;28;20035;-86
2022/10/11 08:29:53;;;;;;;11.70;8.02;;;30.10;99.90;;;;;;5112928;28;20422;-87
2022/10/11 08:32:19;;;;;;;10.73;7.68;;;30.40;99.90;;;;;;5112826;28;20047;-87
2022/10/11 08:34:44;;;;;;;12.60;7.45;;;30.70;99.90;;;;;;5113471;28;20047;-87
2022/10/11 08:37:10;;;;;;;11.07;7.88;;;30.20;99.90;;;;;;5094813;28;20068;-87
2022/10/11 08:39:36;;;;;;;15.05;7.72;;;31.30;99.90;;;;;;5113119;28;20023;-87
2022/10/11 08:42:07;;;;;;;11.10;7.88;;;32.10;99.90;;;;;;5113144;28;20019;-87
2022/10/11 08:44:36;;;;;;;9.57;7.32;;;32.00;99.90;;;;;;5112777;28;20495;-87
2022/10/11 08:47:09;;;;;;;11.82;7.85;;;32.80;99.90;;;;;;5112935;28;20119;-87
2022/10/11 08:49:36;;;;;;;13.90;8.05;;;33.40;99.90;;;;;;5113309;28;20031;-87
2022/10/11 08:52:05;;;;;;;9.48;7.43;;;34.10;99.90;;;;;;5112973;28;20031;-87
2022/10/11 08:54:59;;;;;;;11.52;7.38;;;34.60;99.90;;;;;;5113098;28;20103;-87
2022/10/11 08:57:27;;;;;;;9.65;7.40;;;35.30;99.90;;;;;;5110440;28;20031;-87
2022/10/11 08:59:57;;;;;;;11.40;7.03;;;33.20;99.90;;;;;;5112439;28;20023;-87
2022/10/11 09:02:47;;;;;;;15.43;7.28;;;32.10;99.90;;;;;;5112642;28;20027;-87
2022/10/11 09:05:17;;;;;;;16.02;10.13;;;30.60;99.90;;;;;;5112959;28;20027;-87
2022/10/11 09:08:05;;;;;;;17.65;10.15;;;27.90;99.90;;;;;;5094456;28;20039;-86
2022/10/11 09:10:48;;;;;;;16.45;10.40;;;26.20;99.90;;;;;;5112999;28;20024;-87
2022/10/11 09:13:52;;;;;;;17.27;10.27;;;24.70;99.90;;;;;;5112321;28;20328;-86
2022/10/11 09:16:55;;;;;;;16.02;12.52;;;23.90;99.90;;;;;;5010172;28;20441;-87
2022/10/11 09:19:44;;;;;;;16.42;12.18;;;22.90;99.90;;;;;;5010386;28;20471;-87
2022/10/11 09:22:47;;;;;;;18.27;12.70;;;22.80;99.90;;;;;;5010204;28;20030;-87
2022/10/11 09:25:24;;;;;;;17.42;13.43;;;22.60;99.90;;;;;;5010303;28;20049;-87
2022/10/11 09:27:53;;;;;;;22.40;14.23;;;22.40;99.90;;;;;;4993763;28;20042;-87
2022/10/11 09:30:19;;;;;;;16.85;12.80;;;22.50;99.90;;;;;;5012372;28;20050;-87
2022/10/11 09:32:50;;;;;;;18.60;13.63;;;22.40;99.90;;;;;;5012134;28;20089;-84
2022/10/11 09:35:19;;;;;;;18.77;12.70;;;22.60;99.90;;;;;;5010441;28;20054;-86
2022/10/11 09:37:51;;;;;;;19.52;15.20;;;22.80;99.90;;;;;;5013295;28;20034;-86
2022/10/11 09:40:53;;;;;;;18.83;13.55;;;22.70;99.90;;;;;;5014258;28;20045;-85
2022/10/11 09:43:19;;;;;;;20.23;14.30;;;22.60;99.90;;;;;;5013658;28;20146;-85
2022/10/11 09:45:45;;;;;;;21.83;15.48;;;22.80;99.90;;;;;;5013495;28;20053;-89
2022/10/11 09:48:39;;;;;;;20.67;15.30;;;23.10;99.90;;;;;;5106825;28;20422;-85
2022/10/11 09:51:13;;;;;;;19.58;16.02;;;23.00;99.90;;;;;;5109794;28;20036;-85
2022/10/11 09:53:55;;;;;;;22.63;16.77;;;23.20;99.90;;;;;;5115171;28;20023;-86
2022/10/11 09:56:22;;;;;;;21.70;16.67;;;23.10;99.90;;;;;;5116439;28;20058;-85
2022/10/11 09:58:48;;;;;;;22.02;15.95;;;23.50;99.90;;;;;;5115715;28;20072;-86
2022/10/11 10:01:25;;;;;;;21.63;16.00;;;24.60;99.90;;;;;;5116100;28;20492;-86
2022/10/11 10:04:10;;;;;;;23.58;17.13;;;24.00;99.90;;;;;;5115851;28;20032;-86
2022/10/11 10:06:36;;;;;;;20.90;16.88;;;23.30;99.90;;;;;;5115458;28;20188;-85
2022/10/11 10:09:25;;;;;;;24.77;17.60;;;23.20;99.90;;;;;;5115480;28;20501;-87
2022/10/11 10:11:53;;;;;;;23.77;18.25;;;23.40;99.90;;;;;;5114821;28;20058;-87
2022/10/11 10:14:22;;;;;;;24.00;18.58;;;23.50;99.90;;;;;;5116295;28;20507;-86
2022/10/11 10:17:04;;;;;;;22.80;17.45;;;23.70;99.90;;;;;;5096931;28;20035;-87
2022/10/11 10:19:39;;;;;;;28.02;18.60;;;24.00;99.90;;;;;;5115761;28;20489;-87
2022/10/11 10:22:13;;;;;;;24.40;18.83;;;24.70;99.90;;;;;;5114896;28;20024;-87
2022/10/11 10:24:40;;;;;;;22.23;18.33;;;26.20;99.90;;;;;;5097398;28;20034;-85
2022/10/11 10:27:21;;;;;;;24.10;18.95;;;25.80;99.90;;;;;;5115767;28;20567;-86
2022/10/11 10:30:19;;;;;;;23.30;18.25;;;24.60;99.90;;;;;;5115538;28;20016;-85
2022/10/11 10:33:06;;;;;;;24.92;18.50;;;24.30;99.90;;;;;;5044791;28;20044;-86
2022/10/11 10:35:47;;;;;;;23.23;17.25;;;23.70;99.90;;;;;;5045088;28;20506;-86
2022/10/11 10:38:31;;;;;;;23.90;18.05;;;23.40;99.90;;;;;;5046630;28;20528;-86
2022/10/11 10:41:11;;;;;;;23.60;18.20;;;22.40;99.90;;;;;;5049330;28;20033;-86
2022/10/11 10:43:39;;;;;;;19.60;16.85;;;22.40;99.90;;;;;;5049408;28;20044;-86
2022/10/11 10:46:29;;;;;;;24.38;16.75;;;22.50;99.90;;;;;;5047521;28;20481;-86
2022/10/11 10:49:14;;;;;;;23.52;15.82;;;23.20;99.90;;;;;;5036276;28;20518;-86
2022/10/11 10:52:34;;;;;;;25.33;17.08;;;23.60;99.90;;;;;;5016289;28;20069;-86
2022/10/11 10:55:41;;;;;;;22.75;17.95;;;24.20;99.90;;;;;;5031118;28;20124;-84
2022/10/11 10:58:29;;;;;;;27.52;19.02;;;25.20;99.90;;;;;;5022101;28;20517;-84
2022/10/11 11:01:19;;;;;;;23.83;17.70;;;26.10;99.90;;;;;;4997668;28;20045;-85
2022/10/11 11:04:06;;;;;;;27.33;18.25;;;27.00;99.90;;;;;;5024924;28;20030;-86
2022/10/11 11:06:43;;;;;;;22.38;16.75;;;28.50;99.90;;;;;;5012472;28;20499;-87
2022/10/11 11:09:29;;;;;;;24.20;16.65;;;28.10;99.90;;;;;;5015732;28;20112;-85
2022/10/11 11:12:20;;;;;;;20.52;16.55;;;28.60;99.90;;;;;;5032179;28;20072;-89
2022/10/11 11:15:13;;;;;;;23.50;17.08;;;28.70;99.90;;;;;;5018410;28;20030;-90
2022/10/11 11:17:39;;;;;;;19.10;16.20;;;29.80;99.90;;;;;;4996894;28;20117;-86
2022/10/11 11:20:26;;;;;;;17.15;13.93;;;32.70;99.90;;;;;;5028221;28;20148;-90
2022/10/11 11:23:09;;;;;;;17.15;13.10;;;36.50;99.90;;;;;;5039179;28;20021;-89
2022/10/11 11:25:46;;;;;;;18.02;12.73;;;34.70;99.90;;;;;;5052231;28;20120;-89
2022/10/11 11:28:35;;;;;;;17.20;13.95;;;32.60;99.90;;;;;;5052490;28;20393;-89
2022/10/11 11:31:31;;;;;;;15.60;12.65;;;31.00;99.90;;;;;;5059866;28;20033;-89
2022/10/11 11:34:04;;;;;;;16.08;12.60;;;33.30;99.90;;;;;;5087440;28;20036;-90
2022/10/11 11:36:46;;;;;;;17.13;14.10;;;33.10;99.90;;;;;;5114748;28;20484;-89
2022/10/11 11:39:19;;;;;;;18.75;15.95;;;31.00;99.90;;;;;;5114545;28;20391;-89
2022/10/11 11:41:55;;;;;;;18.75;14.35;;;33.10;99.90;;;;;;5096421;28;20036;-89
2022/10/11 11:44:42;;;;;;;18.55;14.95;;;33.00;99.90;;;;;;5130594;27;20102;-89
2022/10/11 11:47:21;;;;;;;18.13;14.65;;;31.00;99.90;;;;;;5114296;28;20380;-89
2022/10/11 11:49:58;;;;;;;18.48;15.07;;;31.40;99.90;;;;;;5096218;28;20511;-89
2022/10/11 11:52:38;;;;;;;16.65;14.25;;;32.20;99.90;;;;;;5113660;28;20015;-89
2022/10/11 11:55:15;;;;;;;15.05;12.88;;;32.00;99.90;;;;;;5114714;28;20027;-89
2022/10/11 11:57:59;;;;;;;19.35;14.35;;;35.00;99.90;;;;;;5114522;28;20023;-90
2022/10/11 12:00:40;;;;;;;14.25;12.70;;;36.00;99.90;;;;;;5114047;28;20187;-89
2022/10/11 12:03:12;;;;;;;16.60;13.57;;;36.20;99.90;;;;;;5095928;28;20399;-89
2022/10/11 12:05:58;;;;;;;14.57;13.10;;;35.00;99.90;;;;;;5114450;28;20023;-89
2022/10/11 12:08:28;;;;;;;14.02;12.18;;;34.40;99.90;;;;;;5114583;28;20027;-89
2022/10/11 12:10:59;;;;;;;13.88;12.48;;;33.70;99.90;;;;;;5114961;28;20016;-89
2022/10/11 12:13:36;;;;;;;14.43;11.70;;;33.30;99.90;;;;;;5114358;28;20035;-89
2022/10/11 12:16:05;;;;;;;16.63;12.70;;;33.90;99.90;;;;;;5114702;28;20023;-89
2022/10/11 12:18:33;;;;;;;16.02;13.93;;;34.30;99.90;;;;;;5096217;28;20380;-90
2022/10/11 12:21:19;;;;;;;14.43;12.25;;;35.10;99.90;;;;;;5095477;28;20380;-89
2022/10/11 12:23:48;;;;;;;14.25;12.43;;;34.40;99.90;;;;;;5095671;28;20027;-90
2022/10/11 12:26:34;;;;;;;14.00;12.07;;;34.10;99.90;;;;;;5114117;28;20031;-90
2022/10/11 12:29:41;;;;;;;13.25;11.95;;;32.60;99.90;;;;;;5113902;28;20045;-90
2022/10/11 12:32:09;;;;;;;12.68;11.27;;;32.00;99.90;;;;;;5113658;28;20028;-90
2022/10/11 12:34:40;;;;;;;14.23;11.45;;;30.70;99.90;;;;;;5114057;28;20543;-90
2022/10/11 12:37:21;;;;;;;14.43;12.13;;;30.10;99.90;;;;;;5095375;28;20031;-88
2022/10/11 12:39:55;;;;;;;10.50;9.38;;;29.70;99.90;;;;;;5114054;28;20031;-89
2022/10/11 12:42:33;;;;;;;13.32;10.02;;;29.50;99.90;;;;;;5095608;28;20027;-89
2022/10/11 12:45:11;;;;;;;14.60;10.18;;;29.50;99.90;;;;;;5113253;28;20369;-90
2022/10/11 12:47:44;;;;;;;10.82;9.70;;;29.20;99.90;;;;;;5113499;28;20074;-89
2022/10/11 12:50:15;;;;;;;11.10;9.70;;;29.10;99.90;;;;;;5114067;28;20077;-89
2022/10/11 12:53:27;;;;;;;10.75;9.23;;;29.10;99.90;;;;;;5113187;28;20032;-88
2022/10/11 12:56:04;;;;;;;11.05;8.52;;;28.50;99.90;;;;;;5030558;28;20072;-89
2022/10/11 12:58:37;;;;;;;9.55;7.60;;;28.30;99.90;;;;;;5104112;28;20043;-89
2022/10/11 13:01:03;;;;;;;11.75;8.20;;;28.40;99.90;;;;;;5113365;28;20030;-89
2022/10/11 13:03:32;;;;;;;10.27;8.05;;;29.00;99.90;;;;;;5112985;28;20042;-90
2022/10/11 13:05:59;;;;;;;10.93;7.45;;;29.10;99.90;;;;;;5113475;28;20114;-90